Emmett, Kansas
Current Conditions -  °F | °C
As of 3:53 PM on Tuesday 21 Oct 2014 (Local Time) from KTOP Reporting Station
Clear Clear  
Wind Chill: 76°   Ceiling: Unl
Heat Index: 76°   Visibility: 10mi
Dew Point: 43°   Wind: 0mph
Humidity: 31%   Direction: NA
Pressure: 30.05"   Gusts: NA
Location:  39.31°N, 96.06°W
Report Text: KTOP 212053Z 00000KT 10SM CLR 24/06 A3005 RMK AO2 SLP173 T02440061 56019
Loading
Personal Weather Stations






























Interactive Weather Map
Tropical Storm Tracking
New forecast layout! Learn more

10-Day Weather Forecast

Advertisements
Track Severe Weather on mobile